sensor_id;sensor_type;location;lat;lon;timestamp;pressure;altitude;pressure_sealevel;temperature;humidity
70546;BME280;58098;51.680;5.134;2023-02-17T00:00:27;102068.44;;;9.70;100.00
70546;BME280;58098;51.680;5.134;2023-02-17T00:02:57;102068.50;;;9.69;100.00
70546;BME280;58098;51.680;5.134;2023-02-17T00:05:23;102056.31;;;9.69;100.00
70546;BME280;58098;51.680;5.134;2023-02-17T00:07:48;102059.63;;;9.73;100.00
70546;BME280;58098;51.680;5.134;2023-02-17T00:10:14;102062.88;;;9.76;100.00
70546;BME280;58098;51.680;5.134;2023-02-17T00:12:39;102069.94;;;9.74;100.00
70546;BME280;58098;51.680;5.134;2023-02-17T00:15:05;102061.38;;;9.72;100.00
70546;BME280;58098;51.680;5.134;2023-02-17T00:17:31;102065.69;;;9.73;100.00
70546;BME280;58098;51.680;5.134;2023-02-17T00:19:56;102070.44;;;9.81;100.00
70546;BME280;58098;51.680;5.134;2023-02-17T00:22:22;102052.66;;;9.73;100.00
70546;BME280;58098;51.680;5.134;2023-02-17T00:24:48;102063.19;;;9.86;100.00
70546;BME280;58098;51.680;5.134;2023-02-17T00:27:13;102063.13;;;9.87;100.00
70546;BME280;58098;51.680;5.134;2023-02-17T00:29:39;102057.06;;;9.87;100.00
70546;BME280;58098;51.680;5.134;2023-02-17T00:32:04;102029.56;;;9.81;100.00
70546;BME280;58098;51.680;5.134;2023-02-17T00:34:29;102033.50;;;9.88;100.00
70546;BME280;58098;51.680;5.134;2023-02-17T00:36:55;102040.16;;;9.94;100.00
70546;BME280;58098;51.680;5.134;2023-02-17T00:39:20;102037.38;;;9.97;100.00
70546;BME280;58098;51.680;5.134;2023-02-17T00:41:45;102025.53;;;9.91;100.00
70546;BME280;58098;51.680;5.134;2023-02-17T00:44:19;102026.28;;;9.93;100.00
70546;BME280;58098;51.680;5.134;2023-02-17T00:46:45;102039.03;;;9.98;100.00
70546;BME280;58098;51.680;5.134;2023-02-17T00:49:15;102024.41;;;9.95;100.00
70546;BME280;58098;51.680;5.134;2023-02-17T00:51:41;102040.63;;;10.01;100.00
70546;BME280;58098;51.680;5.134;2023-02-17T00:54:07;102037.97;;;10.02;100.00
70546;BME280;58098;51.680;5.134;2023-02-17T00:56:32;102028.88;;;9.93;100.00
70546;BME280;58098;51.680;5.134;2023-02-17T00:58:57;102037.66;;;9.92;100.00
70546;BME280;58098;51.680;5.134;2023-02-17T01:01:23;102029.03;;;9.90;100.00
70546;BME280;58098;51.680;5.134;2023-02-17T01:03:48;102032.31;;;9.94;100.00
70546;BME280;58098;51.680;5.134;2023-02-17T01:06:21;102043.06;;;10.04;100.00
70546;BME280;58098;51.680;5.134;2023-02-17T01:08:47;102039.72;;;10.02;100.00
70546;BME280;58098;51.680;5.134;2023-02-17T01:11:21;102032.81;;;10.01;100.00
70546;BME280;58098;51.680;5.134;2023-02-17T01:13:47;102039.56;;;10.05;100.00
70546;BME280;58098;51.680;5.134;2023-02-17T01:16:18;102026.50;;;10.05;100.00
70546;BME280;58098;51.680;5.134;2023-02-17T01:18:44;102034.06;;;10.09;100.00
70546;BME280;58098;51.680;5.134;2023-02-17T01:21:17;102023.31;;;10.00;100.00
70546;BME280;58098;51.680;5.134;2023-02-17T01:23:42;102044.66;;;10.06;100.00
70546;BME280;58098;51.680;5.134;2023-02-17T01:26:16;102050.56;;;10.10;100.00
70546;BME280;58098;51.680;5.134;2023-02-17T01:28:42;102040.38;;;10.21;100.00
70546;BME280;58098;51.680;5.134;2023-02-17T01:31:08;102043.72;;;10.23;100.00
70546;BME280;58098;51.680;5.134;2023-02-17T01:33:35;102023.91;;;10.05;100.00
70546;BME280;58098;51.680;5.134;2023-02-17T01:36:06;102032.31;;;10.10;100.00
70546;BME280;58098;51.680;5.134;2023-02-17T01:38:32;102034.41;;;10.03;100.00
70546;BME280;58098;51.680;5.134;2023-02-17T01:40:58;102045.41;;;10.08;100.00
70546;BME280;58098;51.680;5.134;2023-02-17T01:43:23;102031.91;;;10.02;100.00
70546;BME280;58098;51.680;5.134;2023-02-17T01:48:17;102044.34;;;10.12;100.00
70546;BME280;58098;51.680;5.134;2023-02-17T01:50:48;102042.72;;;10.10;100.00
70546;BME280;58098;51.680;5.134;2023-02-17T01:53:20;102039.97;;;10.13;100.00
70546;BME280;58098;51.680;5.134;2023-02-17T01:55:47;102052.66;;;10.19;100.00
70546;BME280;58098;51.680;5.134;2023-02-17T01:58:16;102031.53;;;10.08;100.00
70546;BME280;58098;51.680;5.134;2023-02-17T02:00:44;102029.94;;;10.05;100.00
70546;BME280;58098;51.680;5.134;2023-02-17T02:03:11;102034.22;;;10.06;100.00
70546;BME280;58098;51.680;5.134;2023-02-17T02:05:38;102043.34;;;10.15;100.00
70546;BME280;58098;51.680;5.134;2023-02-17T02:08:06;102024.81;;;10.04;100.00
70546;BME280;58098;51.680;5.134;2023-02-17T02:10:31;102028.00;;;10.09;100.00
70546;BME280;58098;51.680;5.134;2023-02-17T02:12:56;102038.28;;;10.12;100.00
70546;BME280;58098;51.680;5.134;2023-02-17T02:15:26;102029.53;;;10.13;100.00
70546;BME280;58098;51.680;5.134;2023-02-17T02:18:19;102023.50;;;10.12;100.00
70546;BME280;58098;51.680;5.134;2023-02-17T02:29:35;101995.38;;;10.02;100.00
70546;BME280;58098;51.680;5.134;2023-02-17T02:34:49;102003.97;;;10.04;100.00
70546;BME280;58098;51.680;5.134;2023-02-17T02:37:23;101996.97;;;10.04;100.00
70546;BME280;58098;51.680;5.134;2023-02-17T02:39:51;101981.16;;;10.07;100.00
70546;BME280;58098;51.680;5.134;2023-02-17T02:42:20;101979.75;;;10.02;100.00
70546;BME280;58098;51.680;5.134;2023-02-17T02:44:47;101960.91;;;9.96;100.00
70546;BME280;58098;51.680;5.134;2023-02-17T02:50:22;101946.97;;;9.98;100.00
70546;BME280;58098;51.680;5.134;2023-02-17T02:53:21;101958.88;;;10.02;100.00
70546;BME280;58098;51.680;5.134;2023-02-17T02:55:54;101943.78;;;9.92;100.00
70546;BME280;58098;51.680;5.134;2023-02-17T03:01:17;101953.50;;;10.05;100.00
70546;BME280;58098;51.680;5.134;2023-02-17T03:03:55;101942.00;;;9.93;100.00
70546;BME280;58098;51.680;5.134;2023-02-17T03:06:52;101958.22;;;9.98;100.00
70546;BME280;58098;51.680;5.134;2023-02-17T03:09:24;101945.81;;;9.87;100.00
70546;BME280;58098;51.680;5.134;2023-02-17T03:11:52;101954.38;;;9.89;100.00
70546;BME280;58098;51.680;5.134;2023-02-17T03:14:20;101954.00;;;9.95;100.00
70546;BME280;58098;51.680;5.134;2023-02-17T03:16:46;101954.78;;;9.98;100.00
70546;BME280;58098;51.680;5.134;2023-02-17T03:19:14;101943.28;;;9.86;100.00
70546;BME280;58098;51.680;5.134;2023-02-17T03:21:51;101946.28;;;9.94;100.00
70546;BME280;58098;51.680;5.134;2023-02-17T03:24:17;101947.31;;;9.91;100.00
70546;BME280;58098;51.680;5.134;2023-02-17T03:26:43;101949.00;;;9.92;100.00
70546;BME280;58098;51.680;5.134;2023-02-17T03:29:09;101947.13;;;9.94;100.00
70546;BME280;58098;51.680;5.134;2023-02-17T03:31:34;101938.56;;;9.92;100.00
70546;BME280;58098;51.680;5.134;2023-02-17T03:34:00;101932.59;;;9.90;100.00
70546;BME280;58098;51.680;5.134;2023-02-17T03:36:26;101935.88;;;9.94;100.00
70546;BME280;58098;51.680;5.134;2023-02-17T03:38:51;101930.66;;;9.94;100.00
70546;BME280;58098;51.680;5.134;2023-02-17T03:41:16;101925.44;;;9.94;100.00
70546;BME280;58098;51.680;5.134;2023-02-17T03:43:42;101922.94;;;9.92;100.00
70546;BME280;58098;51.680;5.134;2023-02-17T03:46:12;101947.13;;;9.94;100.00
70546;BME280;58098;51.680;5.134;2023-02-17T03:48:38;101939.31;;;9.94;100.00
70546;BME280;58098;51.680;5.134;2023-02-17T03:51:14;101937.44;;;9.96;100.00
70546;BME280;58098;51.680;5.134;2023-02-17T03:53:41;101919.91;;;9.84;100.00
70546;BME280;58098;51.680;5.134;2023-02-17T03:56:07;101937.44;;;9.96;100.00
70546;BME280;58098;51.680;5.134;2023-02-17T03:58:33;101932.25;;;9.96;100.00
70546;BME280;58098;51.680;5.134;2023-02-17T04:00:58;101927.94;;;9.95;100.00
70546;BME280;58098;51.680;5.134;2023-02-17T04:03:23;101925.25;;;9.97;100.00
70546;BME280;58098;51.680;5.134;2023-02-17T04:05:48;101921.91;;;9.95;100.00
70546;BME280;58098;51.680;5.134;2023-02-17T04:08:14;101936.53;;;9.98;100.00
70546;BME280;58098;51.680;5.134;2023-02-17T04:10:39;101921.34;;;9.90;100.00
70546;BME280;58098;51.680;5.134;2023-02-17T04:13:04;101930.66;;;9.94;100.00
70546;BME280;58098;51.680;5.134;2023-02-17T04:15:30;101921.41;;;9.88;100.00
70546;BME280;58098;51.680;5.134;2023-02-17T04:17:55;101927.56;;;9.87;100.00
70546;BME280;58098;51.680;5.134;2023-02-17T04:20:20;101933.53;;;9.89;100.00
70546;BME280;58098;51.680;5.134;2023-02-17T04:22:46;101931.50;;;9.94;100.00
70546;BME280;58098;51.680;5.134;2023-02-17T04:25:11;101942.56;;;9.98;100.00
70546;BME280;58098;51.680;5.134;2023-02-17T04:27:36;101940.81;;;9.98;100.00
70546;BME280;58098;51.680;5.134;2023-02-17T04:30:02;101935.75;;;9.95;100.00
70546;BME280;58098;51.680;5.134;2023-02-17T04:32:28;101931.50;;;9.94;100.00
70546;BME280;58098;51.680;5.134;2023-02-17T04:34:53;101943.78;;;9.92;100.00
70546;BME280;58098;51.680;5.134;2023-02-17T04:37:18;101960.75;;;10.00;100.00
70546;BME280;58098;51.680;5.134;2023-02-17T04:39:44;101964.94;;;10.02;100.00
70546;BME280;58098;51.680;5.134;2023-02-17T04:42:09;101963.41;;;9.98;100.00
70546;BME280;58098;51.680;5.134;2023-02-17T04:44:34;101957.56;;;9.94;100.00
70546;BME280;58098;51.680;5.134;2023-02-17T04:47:00;101964.44;;;9.95;100.00
70546;BME280;58098;51.680;5.134;2023-02-17T04:49:25;101959.06;;;9.98;100.00
70546;BME280;58098;51.680;5.134;2023-02-17T04:51:50;101947.31;;;9.91;100.00
70546;BME280;58098;51.680;5.134;2023-02-17T04:54:16;101928.22;;;9.91;100.00
70546;BME280;58098;51.680;5.134;2023-02-17T04:56:41;101940.41;;;9.90;100.00
70546;BME280;58098;51.680;5.134;2023-02-17T04:59:06;101926.44;;;9.91;100.00
70546;BME280;58098;51.680;5.134;2023-02-17T05:01:32;101918.91;;;9.87;100.00
70546;BME280;58098;51.680;5.134;2023-02-17T05:03:57;101930.19;;;9.87;100.00
70546;BME280;58098;51.680;5.134;2023-02-17T05:06:22;101942.72;;;9.81;100.00
70546;BME280;58098;51.680;5.134;2023-02-17T05:08:48;101939.34;;;9.79;100.00
70546;BME280;58098;51.680;5.134;2023-02-17T05:11:14;101922.13;;;9.76;100.00
70546;BME280;58098;51.680;5.134;2023-02-17T05:13:40;101927.91;;;9.81;100.00
70546;BME280;58098;51.680;5.134;2023-02-17T05:16:05;101930.34;;;9.84;100.00
70546;BME280;58098;51.680;5.134;2023-02-17T05:18:30;101916.16;;;9.74;100.00
70546;BME280;58098;51.680;5.134;2023-02-17T05:20:56;101941.91;;;9.80;100.00
70546;BME280;58098;51.680;5.134;2023-02-17T05:23:21;101917.28;;;9.70;100.00
70546;BME280;58098;51.680;5.134;2023-02-17T05:25:47;101945.31;;;9.81;100.00
70546;BME280;58098;51.680;5.134;2023-02-17T05:28:12;101936.19;;;9.74;100.00
70546;BME280;58098;51.680;5.134;2023-02-17T05:30:37;101944.66;;;9.77;100.00
70546;BME280;58098;51.680;5.134;2023-02-17T05:33:03;101958.09;;;9.85;100.00
70546;BME280;58098;51.680;5.134;2023-02-17T05:35:28;101942.22;;;9.74;100.00
70546;BME280;58098;51.680;5.134;2023-02-17T05:37:53;101958.09;;;9.85;100.00
70546;BME280;58098;51.680;5.134;2023-02-17T05:40:19;101940.19;;;9.79;100.00
70546;BME280;58098;51.680;5.134;2023-02-17T05:42:44;101935.91;;;9.78;100.00
70546;BME280;58098;51.680;5.134;2023-02-17T05:45:09;101930.91;;;9.75;100.00
70546;BME280;58098;51.680;5.134;2023-02-17T05:47:35;101932.56;;;9.76;100.00
70546;BME280;58098;51.680;5.134;2023-02-17T05:50:00;101946.91;;;9.83;100.00
70546;BME280;58098;51.680;5.134;2023-02-17T05:52:26;101934.81;;;9.82;100.00
70546;BME280;58098;51.680;5.134;2023-02-17T05:54:51;101934.88;;;9.81;100.00
70546;BME280;58098;51.680;5.134;2023-02-17T05:57:16;101931.53;;;9.79;100.00
70546;BME280;58098;51.680;5.134;2023-02-17T05:59:42;101931.53;;;9.79;100.00
70546;BME280;58098;51.680;5.134;2023-02-17T06:02:07;101941.13;;;9.78;100.00
70546;BME280;58098;51.680;5.134;2023-02-17T06:04:32;101938.59;;;9.77;100.00
70546;BME280;58098;51.680;5.134;2023-02-17T06:06:57;101920.75;;;9.71;100.00
70546;BME280;58098;51.680;5.134;2023-02-17T06:09:23;101923.66;;;9.80;100.00
70546;BME280;58098;51.680;5.134;2023-02-17T06:11:48;101910.97;;;9.74;100.00
70546;BME280;58098;51.680;5.134;2023-02-17T06:14:14;101932.03;;;9.85;100.00
70546;BME280;58098;51.680;5.134;2023-02-17T06:16:39;101919.81;;;9.86;100.00
70546;BME280;58098;51.680;5.134;2023-02-17T06:19:04;101906.41;;;9.78;100.00
70546;BME280;58098;51.680;5.134;2023-02-17T06:21:30;101926.56;;;9.90;100.00
70546;BME280;58098;51.680;5.134;2023-02-17T06:23:56;101916.19;;;9.88;100.00
70546;BME280;58098;51.680;5.134;2023-02-17T06:26:21;101914.72;;;9.84;100.00
70546;BME280;58098;51.680;5.134;2023-02-17T06:28:47;101897.59;;;9.80;100.00
70546;BME280;58098;51.680;5.134;2023-02-17T06:31:12;101908.78;;;9.96;100.00
70546;BME280;58098;51.680;5.134;2023-02-17T06:33:37;101907.94;;;9.96;100.00
70546;BME280;58098;51.680;5.134;2023-02-17T06:36:03;101911.28;;;9.98;100.00
70546;BME280;58098;51.680;5.134;2023-02-17T06:38:28;101909.44;;;10.00;100.00
70546;BME280;58098;51.680;5.134;2023-02-17T06:40:53;101910.63;;;9.94;100.00
70546;BME280;58098;51.680;5.134;2023-02-17T06:43:19;101917.16;;;10.02;100.00
70546;BME280;58098;51.680;5.134;2023-02-17T06:45:45;101915.56;;;9.99;100.00
70546;BME280;58098;51.680;5.134;2023-02-17T06:48:10;101911.66;;;9.92;100.00
70546;BME280;58098;51.680;5.134;2023-02-17T06:50:36;101927.41;;;10.05;100.00
70546;BME280;58098;51.680;5.134;2023-02-17T06:53:01;101923.00;;;10.05;100.00
70546;BME280;58098;51.680;5.134;2023-02-17T06:55:26;101932.69;;;10.03;100.00
70546;BME280;58098;51.680;5.134;2023-02-17T06:57:52;101928.00;;;10.10;100.00
70546;BME280;58098;51.680;5.134;2023-02-17T07:00:17;101929.94;;;10.06;100.00
70546;BME280;58098;51.680;5.134;2023-02-17T07:02:43;101919.03;;;10.00;100.00
70546;BME280;58098;51.680;5.134;2023-02-17T07:05:08;101923.28;;;10.01;100.00
70546;BME280;58098;51.680;5.134;2023-02-17T07:07:34;101920.41;;;10.05;100.00
70546;BME280;58098;51.680;5.134;2023-02-17T07:09:59;101903.38;;;10.00;100.00
70546;BME280;58098;51.680;5.134;2023-02-17T07:12:26;101919.22;;;10.11;100.00
70546;BME280;58098;51.680;5.134;2023-02-17T07:14:52;101911.56;;;10.08;100.00
70546;BME280;58098;51.680;5.134;2023-02-17T07:17:18;101906.88;;;10.14;100.00
70546;BME280;58098;51.680;5.134;2023-02-17T07:19:43;101895.50;;;10.15;100.00
70546;BME280;58098;51.680;5.134;2023-02-17T07:22:08;101879.94;;;10.14;100.00
70546;BME280;58098;51.680;5.134;2023-02-17T07:24:34;101891.78;;;10.19;100.00
70546;BME280;58098;51.680;5.134;2023-02-17T07:26:59;101904.38;;;10.27;100.00
70546;BME280;58098;51.680;5.134;2023-02-17T07:29:25;101884.25;;;10.29;100.00
70546;BME280;58098;51.680;5.134;2023-02-17T07:31:50;101842.28;;;10.04;100.00
70546;BME280;58098;51.680;5.134;2023-02-17T07:34:16;101878.84;;;10.32;100.00
70546;BME280;58098;51.680;5.134;2023-02-17T07:36:41;101871.09;;;10.30;100.00
70546;BME280;58098;51.680;5.134;2023-02-17T07:39:06;101871.94;;;10.31;100.00
70546;BME280;58098;51.680;5.134;2023-02-17T07:41:32;101882.19;;;10.34;100.00
70546;BME280;58098;51.680;5.134;2023-02-17T07:43:58;101874.94;;;10.39;100.00
70546;BME280;58098;51.680;5.134;2023-02-17T07:46:23;101883.56;;;10.39;100.00
70546;BME280;58098;51.680;5.134;2023-02-17T07:48:49;101902.31;;;10.46;100.00
70546;BME280;58098;51.680;5.134;2023-02-17T07:51:17;101879.88;;;10.43;100.00
70546;BME280;58098;51.680;5.134;2023-02-17T07:53:43;101891.03;;;10.45;100.00
70546;BME280;58098;51.680;5.134;2023-02-17T07:56:10;101903.97;;;10.47;100.00
70546;BME280;58098;51.680;5.134;2023-02-17T07:58:37;101883.69;;;10.38;100.00
70546;BME280;58098;51.680;5.134;2023-02-17T08:03:31;101892.34;;;10.52;100.00
70546;BME280;58098;51.680;5.134;2023-02-17T08:05:56;101905.28;;;10.54;100.00
70546;BME280;58098;51.680;5.134;2023-02-17T08:08:21;101897.44;;;10.54;100.00
70546;BME280;58098;51.680;5.134;2023-02-17T08:11:10;101869.13;;;10.48;100.00
70546;BME280;58098;51.680;5.134;2023-02-17T08:13:55;101879.56;;;10.48;100.00
70546;BME280;58098;51.680;5.134;2023-02-17T08:16:20;101892.22;;;10.54;100.00
70546;BME280;58098;51.680;5.134;2023-02-17T08:18:46;101904.72;;;10.63;100.00
70546;BME280;58098;51.680;5.134;2023-02-17T08:21:11;101910.22;;;10.73;100.00
70546;BME280;58098;51.680;5.134;2023-02-17T08:23:36;101916.28;;;10.73;100.00
70546;BME280;58098;51.680;5.134;2023-02-17T08:26:02;101916.63;;;10.81;100.00
70546;BME280;58098;51.680;5.134;2023-02-17T08:28:28;101905.44;;;10.79;100.00
70546;BME280;58098;51.680;5.134;2023-02-17T08:30:54;101922.03;;;10.92;100.00
70546;BME280;58098;51.680;5.134;2023-02-17T08:33:19;101918.63;;;10.90;100.00
70546;BME280;58098;51.680;5.134;2023-02-17T08:35:45;101919.75;;;11.00;100.00
70546;BME280;58098;51.680;5.134;2023-02-17T08:38:11;101912.69;;;11.02;100.00
70546;BME280;58098;51.680;5.134;2023-02-17T08:40:36;101912.84;;;10.99;100.00
70546;BME280;58098;51.680;5.134;2023-02-17T08:43:02;101918.22;;;11.10;100.00
70546;BME280;58098;51.680;5.134;2023-02-17T08:45:27;101923.06;;;11.16;100.00
70546;BME280;58098;51.680;5.134;2023-02-17T08:47:52;101910.19;;;11.13;100.00
70546;BME280;58098;51.680;5.134;2023-02-17T08:50:18;101930.63;;;11.21;100.00
70546;BME280;58098;51.680;5.134;2023-02-17T08:52:45;101907.94;;;11.21;100.00
70546;BME280;58098;51.680;5.134;2023-02-17T08:55:11;101932.75;;;11.28;100.00
70546;BME280;58098;51.680;5.134;2023-02-17T08:57:36;101920.06;;;11.22;100.00
70546;BME280;58098;51.680;5.134;2023-02-17T09:00:04;101930.19;;;11.41;100.00
70546;BME280;58098;51.680;5.134;2023-02-17T09:02:30;101957.22;;;11.40;100.00
70546;BME280;58098;51.680;5.134;2023-02-17T09:04:55;101976.44;;;11.53;100.00
70546;BME280;58098;51.680;5.134;2023-02-17T09:07:21;101965.63;;;11.45;100.00
70546;BME280;58098;51.680;5.134;2023-02-17T09:09:46;101958.81;;;11.43;100.00
70546;BME280;58098;51.680;5.134;2023-02-17T09:12:11;101958.41;;;11.49;100.00
70546;BME280;58098;51.680;5.134;2023-02-17T09:14:36;101931.25;;;11.24;100.00
70546;BME280;58098;51.680;5.134;2023-02-17T09:17:02;101955.72;;;11.50;100.00
70546;BME280;58098;51.680;5.134;2023-02-17T09:19:28;101948.09;;;11.60;100.00
70546;BME280;58098;51.680;5.134;2023-02-17T09:21:54;101956.31;;;11.54;100.00
70546;BME280;58098;51.680;5.134;2023-02-17T09:24:19;101946.81;;;11.53;100.00
70546;BME280;58098;51.680;5.134;2023-02-17T09:26:45;101943.00;;;11.58;100.00
70546;BME280;58098;51.680;5.134;2023-02-17T09:29:10;101968.59;;;11.66;100.00
70546;BME280;58098;51.680;5.134;2023-02-17T09:31:36;101963.69;;;11.61;100.00
70546;BME280;58098;51.680;5.134;2023-02-17T09:34:01;101975.44;;;11.68;100.00
70546;BME280;58098;51.680;5.134;2023-02-17T09:36:29;101960.97;;;11.63;100.00
70546;BME280;58098;51.680;5.134;2023-02-17T09:38:56;101966.78;;;11.54;100.00
70546;BME280;58098;51.680;5.134;2023-02-17T09:41:41;101984.88;;;11.71;100.00
70546;BME280;58098;51.680;5.134;2023-02-17T09:44:20;101985.63;;;11.73;100.00
70546;BME280;58098;51.680;5.134;2023-02-17T09:46:57;101962.28;;;11.70;100.00
70546;BME280;58098;51.680;5.134;2023-02-17T09:49:25;101963.75;;;11.74;100.00
70546;BME280;58098;51.680;5.134;2023-02-17T09:54:28;101964.16;;;11.68;100.00
70546;BME280;58098;51.680;5.134;2023-02-17T09:56:55;101978.28;;;11.78;100.00
70546;BME280;58098;51.680;5.134;2023-02-17T09:59:28;101980.31;;;11.87;100.00
70546;BME280;58098;51.680;5.134;2023-02-17T10:01:57;101961.47;;;11.82;100.00
70546;BME280;58098;51.680;5.134;2023-02-17T10:04:31;101967.13;;;11.88;100.00
70546;BME280;58098;51.680;5.134;2023-02-17T10:07:01;101968.72;;;11.91;100.00
70546;BME280;58098;51.680;5.134;2023-02-17T10:09:41;101973.75;;;11.94;100.00
70546;BME280;58098;51.680;5.134;2023-02-17T10:12:17;101972.78;;;11.95;100.00
70546;BME280;58098;51.680;5.134;2023-02-17T10:14:55;101974.59;;;12.07;100.00
70546;BME280;58098;51.680;5.134;2023-02-17T10:20:15;101993.75;;;12.08;100.00
70546;BME280;58098;51.680;5.134;2023-02-17T10:22:45;101981.47;;;11.96;100.00
70546;BME280;58098;51.680;5.134;2023-02-17T10:25:18;101976.69;;;12.02;100.00
70546;BME280;58098;51.680;5.134;2023-02-17T10:27:55;101987.66;;;12.07;100.00
70546;BME280;58098;51.680;5.134;2023-02-17T10:30:30;101985.66;;;11.98;100.00
70546;BME280;58098;51.680;5.134;2023-02-17T10:33:01;101991.53;;;12.02;100.00
70546;BME280;58098;51.680;5.134;2023-02-17T10:35:40;101988.41;;;11.97;100.00
70546;BME280;58098;51.680;5.134;2023-02-17T10:40:49;102007.22;;;11.89;100.00
70546;BME280;58098;51.680;5.134;2023-02-17T10:43:21;102031.63;;;12.02;100.00
70546;BME280;58098;51.680;5.134;2023-02-17T10:45:49;102035.06;;;12.03;100.00
70546;BME280;58098;51.680;5.134;2023-02-17T10:48:22;102020.56;;;12.11;100.00
70546;BME280;58098;51.680;5.134;2023-02-17T10:50:49;102033.53;;;12.13;100.00
70546;BME280;58098;51.680;5.134;2023-02-17T10:53:17;102021.47;;;12.10;100.00
70546;BME280;58098;51.680;5.134;2023-02-17T10:56:10;102013.72;;;11.96;100.00
70546;BME280;58098;51.680;5.134;2023-02-17T11:01:13;102036.34;;;12.10;100.00
70546;BME280;58098;51.680;5.134;2023-02-17T11:03:39;102032.69;;;12.12;100.00
70546;BME280;58098;51.680;5.134;2023-02-17T11:06:25;102033.13;;;12.19;100.00
70546;BME280;58098;51.680;5.134;2023-02-17T11:08:58;102016.91;;;12.26;100.00
70546;BME280;58098;51.680;5.134;2023-02-17T11:11:29;102001.09;;;12.15;100.00
70546;BME280;58098;51.680;5.134;2023-02-17T11:14:02;102003.41;;;12.32;100.00
70546;BME280;58098;51.680;5.134;2023-02-17T11:16:43;102002.56;;;12.44;100.00
70546;BME280;58098;51.680;5.134;2023-02-17T11:19:30;101975.75;;;12.53;100.00
70546;BME280;58098;51.680;5.134;2023-02-17T11:21:59;101961.94;;;12.64;100.00
70546;BME280;58098;51.680;5.134;2023-02-17T11:24:27;101966.25;;;12.52;100.00
70546;BME280;58098;51.680;5.134;2023-02-17T11:29:23;101973.56;;;12.60;100.00
70546;BME280;58098;51.680;5.134;2023-02-17T11:32:06;101987.59;;;12.59;100.00
70546;BME280;58098;51.680;5.134;2023-02-17T11:34:36;102001.53;;;12.59;100.00
70546;BME280;58098;51.680;5.134;2023-02-17T11:39:41;102007.41;;;12.50;100.00
70546;BME280;58098;51.680;5.134;2023-02-17T11:42:26;102011.78;;;12.50;100.00
70546;BME280;58098;51.680;5.134;2023-02-17T11:44:54;102012.84;;;12.47;100.00
70546;BME280;58098;51.680;5.134;2023-02-17T11:50:33;102030.09;;;12.37;100.00
70546;BME280;58098;51.680;5.134;2023-02-17T11:53:11;102027.06;;;12.31;100.00
70546;BME280;58098;51.680;5.134;2023-02-17T11:55:56;102008.31;;;12.24;100.00
70546;BME280;58098;51.680;5.134;2023-02-17T12:18:02;102025.22;;;12.45;100.00
70546;BME280;58098;51.680;5.134;2023-02-17T12:28:31;102024.75;;;12.14;100.00
70546;BME280;58098;51.680;5.134;2023-02-17T12:36:10;102029.78;;;12.29;100.00
70546;BME280;58098;51.680;5.134;2023-02-17T12:38:51;102034.81;;;12.32;100.00
70546;BME280;58098;51.680;5.134;2023-02-17T12:41:30;102042.56;;;12.46;100.00
70546;BME280;58098;51.680;5.134;2023-02-17T12:44:02;102052.31;;;12.44;100.00
70546;BME280;58098;51.680;5.134;2023-02-17T12:46:37;102055.47;;;12.49;100.00
70546;BME280;58098;51.680;5.134;2023-02-17T12:52:39;102077.53;;;12.33;100.00
70546;BME280;58098;51.680;5.134;2023-02-17T12:55:23;102064.25;;;12.36;100.00
70546;BME280;58098;51.680;5.134;2023-02-17T12:57:56;102053.28;;;12.43;100.00
70546;BME280;58098;51.680;5.134;2023-02-17T13:00:37;102084.25;;;12.49;100.00
70546;BME280;58098;51.680;5.134;2023-02-17T13:03:04;102068.84;;;12.32;100.00
70546;BME280;58098;51.680;5.134;2023-02-17T13:05:37;102064.94;;;12.25;100.00
70546;BME280;58098;51.680;5.134;2023-02-17T13:08:15;102059.31;;;12.31;100.00
70546;BME280;58098;51.680;5.134;2023-02-17T13:10:42;102080.84;;;12.22;100.00
70546;BME280;58098;51.680;5.134;2023-02-17T13:15:46;102108.72;;;12.23;100.00
70546;BME280;58098;51.680;5.134;2023-02-17T13:18:13;102097.19;;;12.26;100.00
70546;BME280;58098;51.680;5.134;2023-02-17T13:23:24;102076.63;;;12.07;100.00
70546;BME280;58098;51.680;5.134;2023-02-17T13:26:45;102103.63;;;12.08;100.00
70546;BME280;58098;51.680;5.134;2023-02-17T13:28:47;102119.13;;;12.11;100.00
70546;BME280;58098;51.680;5.134;2023-02-17T13:33:45;102123.09;;;12.04;100.00
70546;BME280;58098;51.680;5.134;2023-02-17T13:36:13;102122.25;;;12.03;100.00
70546;BME280;58098;51.680;5.134;2023-02-17T13:38:39;102112.19;;;11.97;100.00
70546;BME280;58098;51.680;5.134;2023-02-17T13:41:05;102108.22;;;12.04;100.00
70546;BME280;58098;51.680;5.134;2023-02-17T13:43:39;102105.50;;;12.06;100.00
70546;BME280;58098;51.680;5.134;2023-02-17T13:46:05;102100.41;;;11.90;100.00
70546;BME280;58098;51.680;5.134;2023-02-17T13:48:33;102114.63;;;11.86;100.00
70546;BME280;58098;51.680;5.134;2023-02-17T13:51:04;102112.06;;;11.99;100.00
70546;BME280;58098;51.680;5.134;2023-02-17T13:53:40;102129.47;;;12.00;100.00
70546;BME280;58098;51.680;5.134;2023-02-17T13:56:22;102128.06;;;11.94;100.00
70546;BME280;58098;51.680;5.134;2023-02-17T13:58:48;102110.13;;;11.88;100.00
70546;BME280;58098;51.680;5.134;2023-02-17T14:01:25;102127.97;;;11.96;100.00
70546;BME280;58098;51.680;5.134;2023-02-17T14:03:53;102113.53;;;12.03;100.00
70546;BME280;58098;51.680;5.134;2023-02-17T14:06:34;102124.97;;;12.02;100.00
70546;BME280;58098;51.680;5.134;2023-02-17T14:09:20;102114.75;;;12.11;100.00
70546;BME280;58098;51.680;5.134;2023-02-17T14:11:47;102123.72;;;12.07;100.00
70546;BME280;58098;51.680;5.134;2023-02-17T14:14:13;102133.25;;;12.08;100.00